createdAt,value
2023-03-31T00:00:34.766Z,14.60
2023-03-31T00:03:03.065Z,14.60
2023-03-31T00:05:33.259Z,14.60
2023-03-31T00:08:02.100Z,14.60
2023-03-31T00:10:33.604Z,14.60
2023-03-31T00:13:02.665Z,14.60
2023-03-31T00:15:30.511Z,14.60
2023-03-31T00:18:00.703Z,14.60
2023-03-31T00:20:28.788Z,14.60
2023-03-31T00:22:57.824Z,14.60
2023-03-31T00:25:25.956Z,14.60
2023-03-31T00:27:55.289Z,14.60
2023-03-31T00:30:23.554Z,14.60
2023-03-31T00:32:52.508Z,14.60
2023-03-31T00:35:22.341Z,14.60
2023-03-31T00:37:50.498Z,14.50
2023-03-31T00:40:18.930Z,14.50
2023-03-31T00:42:49.624Z,14.50
2023-03-31T00:45:40.469Z,14.40
2023-03-31T00:48:16.414Z,14.40
2023-03-31T00:50:49.916Z,14.40
2023-03-31T00:53:22.831Z,14.40
2023-03-31T00:55:55.781Z,14.40
2023-03-31T00:58:28.327Z,14.30
2023-03-31T01:00:59.795Z,14.30
2023-03-31T01:03:28.157Z,14.30
2023-03-31T01:05:58.695Z,14.30
2023-03-31T01:08:29.199Z,14.30
2023-03-31T01:10:59.598Z,14.30
2023-03-31T01:13:28.615Z,14.30
2023-03-31T01:15:58.105Z,14.20
2023-03-31T01:18:29.177Z,14.20
2023-03-31T01:21:19.786Z,14.20
2023-03-31T01:24:17.698Z,14.20
2023-03-31T01:27:01.735Z,14.10
2023-03-31T01:29:59.912Z,14.10
2023-03-31T01:32:59.427Z,14.10
2023-03-31T01:35:52.914Z,14.10
2023-03-31T01:38:44.059Z,14.00
2023-03-31T01:41:37.611Z,14.00
2023-03-31T01:44:14.038Z,14.00
2023-03-31T01:46:48.308Z,14.00
2023-03-31T01:49:23.975Z,14.00
2023-03-31T01:52:01.704Z,14.00
2023-03-31T01:54:39.243Z,14.00
2023-03-31T01:57:15.039Z,14.00
2023-03-31T01:59:49.332Z,14.00
2023-03-31T02:02:22.108Z,14.10
2023-03-31T02:04:54.094Z,14.00
2023-03-31T02:07:28.752Z,14.10
2023-03-31T02:10:01.557Z,14.00
2023-03-31T02:12:34.014Z,14.00
2023-03-31T02:15:04.856Z,14.00
2023-03-31T02:17:33.979Z,14.00
2023-03-31T02:20:07.551Z,14.00
2023-03-31T02:22:38.320Z,14.00
2023-03-31T02:25:09.197Z,14.00
2023-03-31T02:27:43.110Z,14.00
2023-03-31T02:30:12.871Z,14.00
2023-03-31T02:32:42.910Z,14.00
2023-03-31T02:35:14.577Z,14.00
2023-03-31T02:37:43.665Z,13.90
2023-03-31T02:40:18.989Z,14.00
2023-03-31T02:42:49.369Z,13.90
2023-03-31T02:45:38.734Z,14.00
2023-03-31T02:48:08.006Z,14.00
2023-03-31T02:50:48.793Z,14.00
2023-03-31T02:53:25.270Z,14.00
2023-03-31T02:56:06.819Z,14.00
2023-03-31T02:59:01.528Z,14.00
2023-03-31T03:01:45.715Z,14.00
2023-03-31T03:04:34.035Z,14.00
2023-03-31T03:07:10.054Z,14.00
2023-03-31T03:09:51.324Z,14.00
2023-03-31T03:12:26.584Z,14.00
2023-03-31T03:15:02.129Z,14.10
2023-03-31T03:17:33.890Z,13.90
2023-03-31T03:20:07.824Z,13.90
2023-03-31T03:22:36.615Z,13.90
2023-03-31T03:25:04.745Z,13.90
2023-03-31T03:27:32.747Z,13.90
2023-03-31T03:30:04.657Z,13.90
2023-03-31T03:35:28.466Z,13.90
2023-03-31T03:37:56.437Z,13.90
2023-03-31T03:40:24.345Z,13.90
2023-03-31T03:42:52.385Z,13.90
2023-03-31T03:45:22.241Z,13.80
2023-03-31T03:47:50.308Z,13.80
2023-03-31T03:50:18.821Z,13.80
2023-03-31T03:52:46.847Z,13.80
2023-03-31T03:55:15.220Z,13.80
2023-03-31T03:57:43.138Z,13.80
2023-03-31T04:00:12.901Z,13.80
2023-03-31T04:02:42.382Z,13.80
2023-03-31T04:05:11.711Z,13.80
2023-03-31T04:07:39.790Z,13.90
2023-03-31T04:10:09.406Z,13.80
2023-03-31T04:12:37.358Z,13.90
2023-03-31T04:15:06.370Z,13.80
2023-03-31T04:17:34.915Z,13.90
2023-03-31T04:20:09.453Z,13.80
2023-03-31T04:22:41.477Z,13.80
2023-03-31T04:25:15.138Z,13.80
2023-03-31T04:27:47.026Z,13.80
2023-03-31T04:30:23.100Z,13.80
2023-03-31T04:32:53.552Z,13.80
2023-03-31T04:35:24.412Z,13.80
2023-03-31T04:37:59.030Z,13.80
2023-03-31T04:40:27.438Z,13.80
2023-03-31T04:42:55.497Z,13.80
2023-03-31T04:45:23.513Z,13.80
2023-03-31T04:47:51.922Z,13.80
2023-03-31T04:50:20.007Z,13.80
2023-03-31T04:52:50.072Z,13.80
2023-03-31T04:55:18.602Z,13.70
2023-03-31T04:57:46.885Z,13.70
2023-03-31T05:00:16.033Z,13.70
2023-03-31T05:02:44.363Z,13.70
2023-03-31T05:05:12.654Z,13.70
2023-03-31T05:07:41.087Z,13.70
2023-03-31T05:10:11.042Z,13.70
2023-03-31T05:12:39.855Z,13.70
2023-03-31T05:15:09.348Z,13.70
2023-03-31T05:17:38.424Z,13.70
2023-03-31T05:20:08.499Z,13.70
2023-03-31T05:22:37.637Z,13.70
2023-03-31T05:25:07.868Z,13.70
2023-03-31T05:27:37.482Z,13.70
2023-03-31T05:30:06.318Z,13.70
2023-03-31T05:32:34.229Z,13.60
2023-03-31T05:35:03.693Z,13.70
2023-03-31T05:37:32.130Z,13.70
2023-03-31T05:40:00.415Z,13.70
2023-03-31T05:42:28.381Z,13.60
2023-03-31T05:44:57.723Z,13.60
2023-03-31T05:47:26.280Z,13.60
2023-03-31T05:49:54.345Z,13.60
2023-03-31T05:52:22.548Z,13.60
2023-03-31T05:54:52.390Z,13.60
2023-03-31T05:57:20.252Z,13.60
2023-03-31T05:59:48.501Z,13.60
2023-03-31T06:02:18.197Z,13.60
2023-03-31T06:04:46.843Z,13.60
2023-03-31T06:07:14.886Z,13.60
2023-03-31T06:09:43.017Z,13.60
2023-03-31T06:12:11.052Z,13.50
2023-03-31T06:14:38.894Z,13.60
2023-03-31T06:17:07.377Z,13.50
2023-03-31T06:19:37.155Z,13.60
2023-03-31T06:22:05.107Z,13.50
2023-03-31T06:24:33.426Z,13.50
2023-03-31T06:27:01.686Z,13.50
2023-03-31T06:29:29.954Z,13.50
2023-03-31T06:31:58.686Z,13.50
2023-03-31T06:34:27.087Z,13.50
2023-03-31T06:36:56.626Z,13.50
2023-03-31T06:39:26.924Z,13.50
2023-03-31T06:41:56.279Z,13.50
2023-03-31T06:44:28.803Z,13.50
2023-03-31T06:46:56.827Z,13.50
2023-03-31T06:49:24.696Z,13.40
2023-03-31T06:51:52.911Z,13.40
2023-03-31T06:54:22.581Z,13.40
2023-03-31T06:56:50.527Z,13.40
2023-03-31T06:59:19.478Z,13.40
2023-03-31T07:01:48.816Z,13.40
2023-03-31T07:04:17.229Z,13.40
2023-03-31T07:06:45.671Z,13.40
2023-03-31T07:09:13.586Z,13.50
2023-03-31T07:11:43.115Z,13.50
2023-03-31T07:14:11.064Z,13.50
2023-03-31T07:16:39.172Z,13.50
2023-03-31T07:19:07.999Z,13.50
2023-03-31T07:21:36.165Z,13.50
2023-03-31T07:24:04.607Z,13.50
2023-03-31T07:26:32.717Z,13.50
2023-03-31T07:29:02.181Z,13.50
2023-03-31T07:31:30.093Z,13.60
2023-03-31T07:33:58.308Z,13.60
2023-03-31T07:36:26.368Z,13.60
2023-03-31T07:38:54.536Z,13.70
2023-03-31T07:41:23.549Z,13.80
2023-03-31T07:43:52.175Z,13.90
2023-03-31T07:46:24.196Z,14.00
2023-03-31T07:48:53.076Z,14.10
2023-03-31T07:51:24.034Z,14.30
2023-03-31T07:53:52.874Z,14.20
2023-03-31T07:56:22.123Z,14.30
2023-03-31T07:58:52.345Z,14.30
2023-03-31T08:01:25.707Z,14.40
2023-03-31T08:03:54.617Z,14.40
2023-03-31T08:06:24.483Z,14.50
2023-03-31T08:08:53.340Z,14.60
2023-03-31T08:11:21.992Z,14.70
2023-03-31T08:13:50.372Z,14.80
2023-03-31T08:16:18.402Z,14.90
2023-03-31T08:18:47.827Z,15.00
2023-03-31T08:21:16.106Z,15.20
2023-03-31T08:23:44.499Z,15.30
2023-03-31T08:26:17.177Z,15.30
2023-03-31T08:28:45.963Z,15.40
2023-03-31T08:31:16.245Z,15.40
2023-03-31T08:33:44.362Z,15.40
2023-03-31T08:36:14.625Z,15.50
2023-03-31T08:38:45.977Z,15.50
2023-03-31T08:41:36.383Z,15.60
2023-03-31T08:44:09.932Z,15.70
2023-03-31T08:46:38.618Z,16.10
2023-03-31T08:49:07.727Z,16.70
2023-03-31T08:51:41.941Z,17.40
2023-03-31T08:54:17.321Z,18.20
2023-03-31T08:56:49.031Z,19.00
2023-03-31T08:59:23.504Z,19.80
2023-03-31T09:01:57.074Z,20.30
2023-03-31T09:04:51.421Z,20.60
2023-03-31T09:07:29.828Z,20.90
2023-03-31T09:10:04.493Z,21.30
2023-03-31T09:12:41.797Z,21.80
2023-03-31T09:15:15.536Z,22.40
2023-03-31T09:17:46.974Z,23.10
2023-03-31T09:20:19.688Z,23.70
2023-03-31T09:22:53.683Z,24.20
2023-03-31T09:25:26.320Z,24.60
2023-03-31T09:27:58.783Z,24.80
2023-03-31T09:30:29.723Z,25.10
2023-03-31T09:33:12.066Z,25.40
2023-03-31T09:35:40.482Z,25.90
2023-03-31T09:38:11.138Z,26.40
2023-03-31T09:40:39.573Z,26.80
2023-03-31T09:43:09.809Z,27.20
2023-03-31T09:45:38.124Z,27.40
2023-03-31T09:48:11.682Z,27.60
2023-03-31T09:50:46.863Z,27.80
2023-03-31T09:53:22.982Z,27.90
2023-03-31T09:55:57.173Z,27.80
2023-03-31T09:58:26.080Z,27.50
2023-03-31T10:01:02.684Z,27.20
2023-03-31T10:03:36.511Z,26.80
2023-03-31T10:06:10.947Z,26.40
2023-03-31T10:08:44.113Z,26.10
2023-03-31T10:11:13.548Z,25.80
2023-03-31T10:14:02.185Z,25.70
2023-03-31T10:16:32.876Z,25.70
2023-03-31T10:19:14.160Z,25.80
2023-03-31T10:21:46.383Z,25.90
2023-03-31T10:24:20.022Z,25.90
2023-03-31T10:26:50.234Z,26.00
2023-03-31T10:29:25.471Z,26.00
2023-03-31T10:31:53.949Z,25.90
2023-03-31T10:34:23.771Z,25.70
2023-03-31T10:36:53.355Z,25.20
2023-03-31T10:39:32.750Z,24.70
2023-03-31T10:42:01.585Z,24.10
2023-03-31T10:44:34.976Z,23.50
2023-03-31T10:47:17.832Z,23.00
2023-03-31T10:49:48.758Z,22.40
2023-03-31T10:52:20.654Z,22.00
2023-03-31T10:54:53.969Z,21.60
2023-03-31T10:57:30.826Z,21.20
2023-03-31T11:00:15.369Z,21.00
2023-03-31T11:03:16.674Z,20.80
2023-03-31T11:05:50.610Z,20.80
2023-03-31T11:08:32.725Z,20.90
2023-03-31T11:11:23.093Z,21.00
2023-03-31T11:13:59.128Z,21.10
2023-03-31T11:16:34.789Z,21.10
2023-03-31T11:19:12.048Z,21.00
2023-03-31T11:21:50.228Z,20.90
2023-03-31T11:24:31.802Z,20.80
2023-03-31T11:27:13.937Z,20.80
2023-03-31T11:29:49.035Z,20.80
2023-03-31T11:32:37.564Z,20.80
2023-03-31T11:35:18.285Z,20.90
2023-03-31T11:38:11.569Z,21.00
2023-03-31T11:40:52.635Z,20.80
2023-03-31T11:43:29.316Z,20.70
2023-03-31T11:46:01.661Z,20.40
2023-03-31T11:48:37.438Z,20.20
2023-03-31T11:51:09.131Z,19.80
2023-03-31T11:53:39.827Z,19.50
2023-03-31T11:56:10.774Z,19.30
2023-03-31T11:58:45.530Z,19.10
2023-03-31T12:01:21.028Z,18.90
2023-03-31T12:03:56.585Z,18.70
2023-03-31T12:06:30.428Z,18.60
2023-03-31T12:09:11.573Z,18.60
2023-03-31T12:11:44.449Z,18.70
2023-03-31T12:14:26.833Z,18.80
2023-03-31T12:16:59.442Z,19.00
2023-03-31T12:19:33.297Z,19.20
2023-03-31T12:22:09.285Z,19.50
2023-03-31T12:24:37.605Z,19.70
2023-03-31T12:27:13.679Z,19.80
2023-03-31T12:29:46.144Z,19.90
2023-03-31T12:32:18.442Z,20.00
2023-03-31T12:34:52.778Z,20.00
2023-03-31T12:37:59.389Z,19.90
2023-03-31T12:40:39.866Z,19.90
2023-03-31T12:43:20.670Z,19.80
2023-03-31T12:45:54.990Z,19.70
2023-03-31T12:48:49.394Z,19.60
2023-03-31T12:51:27.179Z,19.40
2023-03-31T12:54:09.947Z,19.20
2023-03-31T12:57:13.610Z,18.80
2023-03-31T12:59:43.506Z,18.40
2023-03-31T13:02:27.376Z,18.00
2023-03-31T13:04:55.790Z,17.60
2023-03-31T13:07:41.654Z,17.30
2023-03-31T13:10:29.243Z,17.00
2023-03-31T13:13:05.382Z,16.80
2023-03-31T13:15:34.370Z,16.60
2023-03-31T13:18:05.425Z,16.40
2023-03-31T13:20:38.513Z,16.30
2023-03-31T13:23:20.474Z,16.20
2023-03-31T13:25:51.212Z,16.10
2023-03-31T13:28:28.348Z,16.10
2023-03-31T13:31:00.908Z,16.20
2023-03-31T13:33:35.385Z,16.20
2023-03-31T13:36:38.319Z,16.30
2023-03-31T13:39:29.948Z,16.40
2023-03-31T13:42:09.103Z,16.50
2023-03-31T13:45:07.275Z,16.70
2023-03-31T13:47:57.146Z,16.80
2023-03-31T13:50:43.544Z,17.00
2023-03-31T13:53:26.844Z,17.10
2023-03-31T13:56:28.341Z,17.20
2023-03-31T13:59:20.598Z,17.30
2023-03-31T14:02:05.543Z,17.40
2023-03-31T14:05:01.917Z,17.40
2023-03-31T14:07:35.624Z,17.40
2023-03-31T14:10:04.395Z,17.30
2023-03-31T14:12:34.994Z,17.20
2023-03-31T14:15:03.650Z,17.10
2023-03-31T14:17:34.715Z,17.00
2023-03-31T14:20:23.386Z,16.80
2023-03-31T14:23:07.493Z,16.70
2023-03-31T14:25:45.537Z,16.60
2023-03-31T14:28:37.520Z,16.40
2023-03-31T14:31:24.026Z,16.40
2023-03-31T14:34:21.183Z,16.40
2023-03-31T14:36:58.104Z,16.40
2023-03-31T14:39:30.599Z,16.40
2023-03-31T14:42:03.758Z,16.40
2023-03-31T14:44:32.158Z,16.50
2023-03-31T14:47:01.581Z,16.50
2023-03-31T14:49:35.692Z,16.50
2023-03-31T14:52:13.846Z,16.60
2023-03-31T14:54:47.659Z,16.60
2023-03-31T14:57:19.229Z,16.70
2023-03-31T14:59:50.273Z,16.70
2023-03-31T15:02:21.826Z,16.70
2023-03-31T15:04:51.958Z,16.70
2023-03-31T15:07:21.027Z,16.70
2023-03-31T15:09:51.974Z,16.70
2023-03-31T15:12:22.790Z,16.70
2023-03-31T15:14:52.955Z,16.70
2023-03-31T15:17:22.846Z,16.60
2023-03-31T15:19:56.130Z,16.60
2023-03-31T15:22:25.861Z,16.50
2023-03-31T15:24:55.720Z,16.40
2023-03-31T15:27:36.924Z,16.30
2023-03-31T15:30:08.429Z,16.20
2023-03-31T15:32:39.073Z,16.20
2023-03-31T15:37:59.802Z,16.10
2023-03-31T15:40:32.376Z,16.00
2023-03-31T15:43:24.314Z,16.00
2023-03-31T15:45:54.778Z,15.90
2023-03-31T15:48:28.629Z,15.90
2023-03-31T15:51:02.511Z,15.90
2023-03-31T15:53:36.185Z,15.80
2023-03-31T15:56:07.502Z,15.80
2023-03-31T15:59:04.332Z,15.70
2023-03-31T16:01:34.441Z,15.80
2023-03-31T16:04:07.314Z,15.80
2023-03-31T16:06:43.430Z,15.80
2023-03-31T16:09:17.448Z,15.70
2023-03-31T16:11:51.407Z,15.70
2023-03-31T16:14:22.900Z,15.70
2023-03-31T16:16:53.830Z,15.70
2023-03-31T16:19:24.706Z,15.60
2023-03-31T16:21:55.781Z,15.60
2023-03-31T16:24:30.850Z,15.60
2023-03-31T16:27:06.450Z,15.60
2023-03-31T16:29:35.312Z,15.60
2023-03-31T16:32:12.516Z,15.60
2023-03-31T16:34:54.473Z,15.60
2023-03-31T16:37:23.034Z,15.60
2023-03-31T16:39:51.292Z,15.60
2023-03-31T16:42:21.874Z,15.60
2023-03-31T16:47:38.430Z,15.50
2023-03-31T16:50:07.973Z,15.50
2023-03-31T16:52:37.216Z,15.50
2023-03-31T16:55:06.368Z,15.50
2023-03-31T16:57:35.780Z,15.40
2023-03-31T17:00:03.844Z,15.30
2023-03-31T17:02:32.196Z,15.30
2023-03-31T17:05:11.938Z,15.30
2023-03-31T17:07:41.341Z,15.20
2023-03-31T17:10:10.478Z,15.20
2023-03-31T17:12:39.900Z,15.10
2023-03-31T17:15:09.340Z,15.10
2023-03-31T17:17:38.058Z,15.00
2023-03-31T17:20:08.033Z,15.00
2023-03-31T17:22:37.169Z,15.00
2023-03-31T17:25:07.886Z,15.00
2023-03-31T17:27:36.075Z,15.00
2023-03-31T17:30:06.986Z,14.90
2023-03-31T17:32:35.114Z,14.90
2023-03-31T17:35:03.844Z,14.90
2023-03-31T17:37:32.010Z,14.90
2023-03-31T17:40:00.383Z,14.80
2023-03-31T17:42:28.333Z,14.80
2023-03-31T17:44:56.266Z,14.80
2023-03-31T17:47:25.874Z,14.80
2023-03-31T17:49:54.839Z,14.80
2023-03-31T17:52:22.788Z,14.80
2023-03-31T17:54:51.170Z,14.80
2023-03-31T17:57:19.375Z,14.80
2023-03-31T17:59:48.762Z,14.80
2023-03-31T18:02:17.153Z,14.80
2023-03-31T18:04:46.694Z,14.80
2023-03-31T18:07:14.704Z,14.70
2023-03-31T18:09:42.803Z,14.80
2023-03-31T18:12:10.825Z,14.70
2023-03-31T18:14:39.562Z,14.70
2023-03-31T18:17:07.664Z,14.70
2023-03-31T18:19:35.539Z,14.70
2023-03-31T18:22:04.948Z,14.70
2023-03-31T18:24:34.264Z,14.70
2023-03-31T18:27:04.147Z,14.70
2023-03-31T18:29:32.351Z,14.70
2023-03-31T18:32:00.668Z,14.70
2023-03-31T18:34:29.089Z,14.70
2023-03-31T18:36:57.208Z,14.70
2023-03-31T18:39:27.462Z,14.70
2023-03-31T18:41:55.713Z,14.70
2023-03-31T18:44:23.942Z,14.70
2023-03-31T18:46:52.222Z,14.80
2023-03-31T18:49:21.157Z,14.80
2023-03-31T18:51:50.094Z,14.80
2023-03-31T18:54:18.258Z,14.80
2023-03-31T18:56:47.679Z,14.80
2023-03-31T18:59:16.530Z,14.80
2023-03-31T19:01:44.712Z,14.80
2023-03-31T19:04:12.788Z,14.80
2023-03-31T19:06:41.073Z,14.80
2023-03-31T19:09:08.913Z,14.80
2023-03-31T19:11:38.838Z,14.80
2023-03-31T19:14:08.288Z,14.80
2023-03-31T19:16:41.865Z,14.70
2023-03-31T19:19:10.553Z,14.70
2023-03-31T19:21:38.808Z,14.70
2023-03-31T19:24:07.581Z,14.70
2023-03-31T19:26:35.781Z,14.70
2023-03-31T19:29:05.185Z,14.70
2023-03-31T19:31:38.660Z,14.60
2023-03-31T19:34:08.145Z,14.60
2023-03-31T19:36:36.471Z,14.60
2023-03-31T19:39:06.305Z,14.50
2023-03-31T19:41:34.586Z,14.50
2023-03-31T19:44:02.733Z,14.50
2023-03-31T19:46:30.869Z,14.50
2023-03-31T19:49:00.831Z,14.40
2023-03-31T19:51:29.015Z,14.40
2023-03-31T19:53:57.663Z,14.40
2023-03-31T19:56:27.041Z,14.40
2023-03-31T19:58:55.598Z,14.30
2023-03-31T20:01:25.959Z,14.30
2023-03-31T20:03:54.790Z,14.30
2023-03-31T20:06:25.704Z,14.30
2023-03-31T20:08:55.101Z,14.30
2023-03-31T20:11:23.359Z,14.20
2023-03-31T20:13:51.973Z,14.20
2023-03-31T20:16:22.509Z,14.20
2023-03-31T20:18:54.058Z,14.20
2023-03-31T20:21:25.865Z,14.10
2023-03-31T20:23:54.379Z,14.20
2023-03-31T20:26:25.031Z,14.10
2023-03-31T20:28:56.020Z,14.10
2023-03-31T20:31:26.419Z,14.10
2023-03-31T20:33:55.777Z,14.00
2023-03-31T20:36:27.257Z,14.00
2023-03-31T20:38:55.494Z,14.00
2023-03-31T20:41:26.227Z,14.00
2023-03-31T20:43:54.825Z,13.90
2023-03-31T20:46:24.015Z,13.90
2023-03-31T20:48:54.814Z,13.90
2023-03-31T20:51:25.725Z,13.90
2023-03-31T20:53:56.567Z,13.80
2023-03-31T20:56:27.727Z,13.80
2023-03-31T20:58:58.783Z,13.80
2023-03-31T21:01:29.835Z,13.80
2023-03-31T21:04:00.699Z,13.80
2023-03-31T21:06:30.597Z,13.80
2023-03-31T21:09:00.372Z,13.80
2023-03-31T21:11:28.658Z,13.80
2023-03-31T21:13:56.921Z,13.80
2023-03-31T21:16:26.612Z,13.70
2023-03-31T21:18:55.606Z,13.70
2023-03-31T21:21:24.984Z,13.80
2023-03-31T21:23:53.322Z,13.80
2023-03-31T21:26:23.605Z,13.70
2023-03-31T21:28:54.038Z,13.70
2023-03-31T21:31:24.238Z,13.80
2023-03-31T21:33:53.407Z,13.70
2023-03-31T21:36:23.133Z,13.70
2023-03-31T21:38:53.138Z,13.70
2023-03-31T21:41:24.199Z,13.70
2023-03-31T21:43:53.544Z,13.70
2023-03-31T21:46:24.175Z,13.70
2023-03-31T21:48:52.218Z,13.70
2023-03-31T21:51:22.015Z,13.70
2023-03-31T21:53:51.527Z,13.70
2023-03-31T21:56:19.937Z,13.70
2023-03-31T21:58:50.716Z,13.70
2023-03-31T22:01:19.556Z,13.70
2023-03-31T22:03:48.938Z,13.70
2023-03-31T22:06:17.144Z,13.70
2023-03-31T22:08:45.525Z,13.70
2023-03-31T22:11:14.946Z,13.70
2023-03-31T22:13:43.124Z,13.70
2023-03-31T22:16:18.737Z,13.70
2023-03-31T22:18:48.110Z,13.70
2023-03-31T22:21:18.575Z,13.70
2023-03-31T22:23:46.738Z,13.70
2023-03-31T22:26:15.083Z,13.70
2023-03-31T22:28:43.147Z,13.70
2023-03-31T22:31:11.029Z,13.70
2023-03-31T22:33:40.307Z,13.70
2023-03-31T22:36:09.293Z,13.60
2023-03-31T22:38:37.351Z,13.60
2023-03-31T22:41:05.926Z,13.60
2023-03-31T22:43:34.522Z,13.60
2023-03-31T22:46:05.183Z,13.60
2023-03-31T22:48:33.110Z,13.50
2023-03-31T22:51:05.786Z,13.50
2023-03-31T22:53:34.052Z,13.50
2023-03-31T22:56:06.277Z,13.50
2023-03-31T22:58:34.434Z,13.40
2023-03-31T23:01:03.021Z,13.40
2023-03-31T23:03:31.553Z,13.40
2023-03-31T23:06:05.077Z,13.30
2023-03-31T23:08:33.252Z,13.40
2023-03-31T23:11:02.673Z,13.40
2023-03-31T23:13:31.208Z,13.40
2023-03-31T23:16:05.083Z,13.40
2023-03-31T23:18:33.006Z,13.40
2023-03-31T23:21:01.247Z,13.40
2023-03-31T23:23:30.707Z,13.30
2023-03-31T23:26:01.919Z,13.30
2023-03-31T23:28:30.023Z,13.30
2023-03-31T23:30:58.164Z,13.30
2023-03-31T23:33:26.887Z,13.30
2023-03-31T23:35:59.056Z,13.30
2023-03-31T23:38:27.402Z,13.30
2023-03-31T23:40:56.766Z,13.30
2023-03-31T23:43:26.167Z,13.20
2023-03-31T23:45:54.912Z,13.20
2023-03-31T23:48:23.310Z,13.20
2023-03-31T23:50:51.786Z,13.20
2023-03-31T23:53:19.643Z,13.20
2023-03-31T23:55:56.553Z,13.20
2023-03-31T23:58:24.663Z,13.20
